sensor_id;sensor_type;location;lat;lon;timestamp;temperature;humidity
4697;DHT22;2362;50.780;0.292;2023-05-10T00:02:12;12.30;99.90
4697;DHT22;2362;50.780;0.292;2023-05-10T00:04:38;12.30;99.90
4697;DHT22;2362;50.780;0.292;2023-05-10T00:07:04;12.30;99.90
4697;DHT22;2362;50.780;0.292;2023-05-10T00:09:29;12.30;99.90
4697;DHT22;2362;50.780;0.292;2023-05-10T00:11:55;12.30;99.90
4697;DHT22;2362;50.780;0.292;2023-05-10T00:14:23;12.30;99.90
4697;DHT22;2362;50.780;0.292;2023-05-10T00:16:49;12.30;99.90
4697;DHT22;2362;50.780;0.292;2023-05-10T00:19:16;12.30;99.90
4697;DHT22;2362;50.780;0.292;2023-05-10T00:21:41;12.20;99.90
4697;DHT22;2362;50.780;0.292;2023-05-10T00:24:07;12.20;99.90
4697;DHT22;2362;50.780;0.292;2023-05-10T00:26:33;12.30;99.90
4697;DHT22;2362;50.780;0.292;2023-05-10T00:28:58;12.20;99.90
4697;DHT22;2362;50.780;0.292;2023-05-10T00:31:24;12.30;99.90
4697;DHT22;2362;50.780;0.292;2023-05-10T00:33:49;12.30;99.90
4697;DHT22;2362;50.780;0.292;2023-05-10T00:36:15;12.30;99.90
4697;DHT22;2362;50.780;0.292;2023-05-10T00:38:41;12.30;99.90
4697;DHT22;2362;50.780;0.292;2023-05-10T00:41:06;12.30;99.90
4697;DHT22;2362;50.780;0.292;2023-05-10T00:43:32;12.40;99.90
4697;DHT22;2362;50.780;0.292;2023-05-10T00:45:58;12.40;99.90
4697;DHT22;2362;50.780;0.292;2023-05-10T00:48:23;12.40;99.90
4697;DHT22;2362;50.780;0.292;2023-05-10T00:50:49;12.40;99.90
4697;DHT22;2362;50.780;0.292;2023-05-10T00:53:15;12.50;99.90
4697;DHT22;2362;50.780;0.292;2023-05-10T00:55:41;12.50;99.90
4697;DHT22;2362;50.780;0.292;2023-05-10T00:58:07;12.50;99.90
4697;DHT22;2362;50.780;0.292;2023-05-10T01:00:33;12.50;99.90
4697;DHT22;2362;50.780;0.292;2023-05-10T01:02:59;12.50;99.90
4697;DHT22;2362;50.780;0.292;2023-05-10T01:05:25;12.60;99.90
4697;DHT22;2362;50.780;0.292;2023-05-10T01:07:52;12.60;99.90
4697;DHT22;2362;50.780;0.292;2023-05-10T01:10:18;12.60;99.90
4697;DHT22;2362;50.780;0.292;2023-05-10T01:12:46;12.70;99.90
4697;DHT22;2362;50.780;0.292;2023-05-10T01:15:12;12.60;99.90
4697;DHT22;2362;50.780;0.292;2023-05-10T01:17:40;12.60;99.90
4697;DHT22;2362;50.780;0.292;2023-05-10T01:20:09;12.60;99.90
4697;DHT22;2362;50.780;0.292;2023-05-10T01:31:30;12.50;99.90
4697;DHT22;2362;50.780;0.292;2023-05-10T01:36:31;12.60;99.90
4697;DHT22;2362;50.780;0.292;2023-05-10T01:39:28;12.50;99.90
4697;DHT22;2362;50.780;0.292;2023-05-10T01:42:31;12.50;99.90
4697;DHT22;2362;50.780;0.292;2023-05-10T01:45:39;12.50;99.90
4697;DHT22;2362;50.780;0.292;2023-05-10T01:48:09;12.50;99.90
4697;DHT22;2362;50.780;0.292;2023-05-10T01:50:37;12.40;99.90
4697;DHT22;2362;50.780;0.292;2023-05-10T01:53:07;12.50;99.90
4697;DHT22;2362;50.780;0.292;2023-05-10T01:55:39;12.40;99.90
4697;DHT22;2362;50.780;0.292;2023-05-10T01:58:32;12.40;99.90
4697;DHT22;2362;50.780;0.292;2023-05-10T02:01:01;12.40;99.90
4697;DHT22;2362;50.780;0.292;2023-05-10T02:03:29;12.40;99.90
4697;DHT22;2362;50.780;0.292;2023-05-10T02:05:57;12.40;99.90
4697;DHT22;2362;50.780;0.292;2023-05-10T02:08:24;12.40;99.90
4697;DHT22;2362;50.780;0.292;2023-05-10T02:10:52;12.40;99.90
4697;DHT22;2362;50.780;0.292;2023-05-10T02:13:19;12.40;99.90
4697;DHT22;2362;50.780;0.292;2023-05-10T02:15:48;12.30;99.90
4697;DHT22;2362;50.780;0.292;2023-05-10T02:18:14;12.40;99.90
4697;DHT22;2362;50.780;0.292;2023-05-10T02:20:42;12.40;99.90
4697;DHT22;2362;50.780;0.292;2023-05-10T02:23:09;12.40;99.90
4697;DHT22;2362;50.780;0.292;2023-05-10T02:25:37;12.40;99.90
4697;DHT22;2362;50.780;0.292;2023-05-10T02:28:05;12.40;99.90
4697;DHT22;2362;50.780;0.292;2023-05-10T02:30:33;12.40;99.90
4697;DHT22;2362;50.780;0.292;2023-05-10T02:32:59;12.40;99.90
4697;DHT22;2362;50.780;0.292;2023-05-10T02:35:26;12.40;99.90
4697;DHT22;2362;50.780;0.292;2023-05-10T02:37:53;12.40;99.90
4697;DHT22;2362;50.780;0.292;2023-05-10T02:40:21;12.40;99.90
4697;DHT22;2362;50.780;0.292;2023-05-10T02:42:48;12.40;99.90
4697;DHT22;2362;50.780;0.292;2023-05-10T02:45:20;12.40;99.90
4697;DHT22;2362;50.780;0.292;2023-05-10T02:47:47;12.40;99.90
4697;DHT22;2362;50.780;0.292;2023-05-10T02:50:13;12.30;99.90
4697;DHT22;2362;50.780;0.292;2023-05-10T02:52:46;12.30;99.90
4697;DHT22;2362;50.780;0.292;2023-05-10T02:55:14;12.30;99.90
4697;DHT22;2362;50.780;0.292;2023-05-10T02:57:57;12.30;99.90
4697;DHT22;2362;50.780;0.292;2023-05-10T03:00:24;12.30;99.90
4697;DHT22;2362;50.780;0.292;2023-05-10T03:02:50;12.30;99.90
4697;DHT22;2362;50.780;0.292;2023-05-10T03:05:16;12.30;99.90
4697;DHT22;2362;50.780;0.292;2023-05-10T03:07:41;12.30;99.90
4697;DHT22;2362;50.780;0.292;2023-05-10T03:10:07;12.30;99.90
4697;DHT22;2362;50.780;0.292;2023-05-10T03:15:25;12.30;99.90
4697;DHT22;2362;50.780;0.292;2023-05-10T03:18:04;12.30;99.90
4697;DHT22;2362;50.780;0.292;2023-05-10T03:20:41;12.30;99.90
4697;DHT22;2362;50.780;0.292;2023-05-10T03:25:44;12.20;99.90
4697;DHT22;2362;50.780;0.292;2023-05-10T03:28:13;12.20;99.90
4697;DHT22;2362;50.780;0.292;2023-05-10T03:30:41;12.10;99.90
4697;DHT22;2362;50.780;0.292;2023-05-10T03:33:07;12.20;99.90
4697;DHT22;2362;50.780;0.292;2023-05-10T03:35:33;12.10;99.90
4697;DHT22;2362;50.780;0.292;2023-05-10T03:37:58;12.10;99.90
4697;DHT22;2362;50.780;0.292;2023-05-10T03:40:25;12.10;99.90
4697;DHT22;2362;50.780;0.292;2023-05-10T03:42:51;12.10;99.90
4697;DHT22;2362;50.780;0.292;2023-05-10T03:45:17;12.10;99.90
4697;DHT22;2362;50.780;0.292;2023-05-10T03:47:43;12.10;99.90
4697;DHT22;2362;50.780;0.292;2023-05-10T03:50:09;12.10;99.90
4697;DHT22;2362;50.780;0.292;2023-05-10T03:52:35;12.10;99.90
4697;DHT22;2362;50.780;0.292;2023-05-10T03:55:01;12.10;99.90
4697;DHT22;2362;50.780;0.292;2023-05-10T03:57:29;12.10;99.90
4697;DHT22;2362;50.780;0.292;2023-05-10T03:59:54;12.00;99.90
4697;DHT22;2362;50.780;0.292;2023-05-10T04:02:20;12.00;99.90
4697;DHT22;2362;50.780;0.292;2023-05-10T04:04:45;12.00;99.90
4697;DHT22;2362;50.780;0.292;2023-05-10T04:07:11;12.00;99.90
4697;DHT22;2362;50.780;0.292;2023-05-10T04:09:37;12.00;99.90
4697;DHT22;2362;50.780;0.292;2023-05-10T04:12:02;11.90;99.90
4697;DHT22;2362;50.780;0.292;2023-05-10T04:14:28;12.00;99.90
4697;DHT22;2362;50.780;0.292;2023-05-10T04:16:54;11.90;99.90
4697;DHT22;2362;50.780;0.292;2023-05-10T04:19:20;11.90;99.90
4697;DHT22;2362;50.780;0.292;2023-05-10T04:21:46;11.90;99.90
4697;DHT22;2362;50.780;0.292;2023-05-10T04:24:12;11.90;99.90
4697;DHT22;2362;50.780;0.292;2023-05-10T04:26:37;11.90;99.90
4697;DHT22;2362;50.780;0.292;2023-05-10T04:29:03;11.90;99.90
4697;DHT22;2362;50.780;0.292;2023-05-10T04:31:28;11.90;99.90
4697;DHT22;2362;50.780;0.292;2023-05-10T04:33:54;11.90;99.90
4697;DHT22;2362;50.780;0.292;2023-05-10T04:36:20;11.90;99.90
4697;DHT22;2362;50.780;0.292;2023-05-10T04:38:46;11.90;99.90
4697;DHT22;2362;50.780;0.292;2023-05-10T04:41:11;11.90;99.90
4697;DHT22;2362;50.780;0.292;2023-05-10T04:43:37;11.90;99.90
4697;DHT22;2362;50.780;0.292;2023-05-10T04:46:04;11.90;99.90
4697;DHT22;2362;50.780;0.292;2023-05-10T04:48:30;11.90;99.90
4697;DHT22;2362;50.780;0.292;2023-05-10T04:50:56;11.90;99.90
4697;DHT22;2362;50.780;0.292;2023-05-10T04:53:22;11.90;99.90
4697;DHT22;2362;50.780;0.292;2023-05-10T04:55:47;12.00;99.90
4697;DHT22;2362;50.780;0.292;2023-05-10T04:58:13;12.00;99.90
4697;DHT22;2362;50.780;0.292;2023-05-10T05:00:39;12.00;99.90
4697;DHT22;2362;50.780;0.292;2023-05-10T05:03:04;12.00;99.90
4697;DHT22;2362;50.780;0.292;2023-05-10T05:05:30;12.00;99.90
4697;DHT22;2362;50.780;0.292;2023-05-10T05:08:22;12.00;99.90
4697;DHT22;2362;50.780;0.292;2023-05-10T05:11:13;12.00;99.90
4697;DHT22;2362;50.780;0.292;2023-05-10T05:13:39;12.10;99.90
4697;DHT22;2362;50.780;0.292;2023-05-10T05:16:05;12.10;99.90
4697;DHT22;2362;50.780;0.292;2023-05-10T05:18:31;12.10;99.90
4697;DHT22;2362;50.780;0.292;2023-05-10T05:20:56;12.10;99.90
4697;DHT22;2362;50.780;0.292;2023-05-10T05:23:22;12.10;99.90
4697;DHT22;2362;50.780;0.292;2023-05-10T05:25:54;12.10;99.90
4697;DHT22;2362;50.780;0.292;2023-05-10T05:28:20;12.10;99.90
4697;DHT22;2362;50.780;0.292;2023-05-10T05:30:46;12.20;99.90
4697;DHT22;2362;50.780;0.292;2023-05-10T05:33:13;12.20;99.90
4697;DHT22;2362;50.780;0.292;2023-05-10T05:35:41;12.10;99.90
4697;DHT22;2362;50.780;0.292;2023-05-10T05:38:33;12.20;99.90
4697;DHT22;2362;50.780;0.292;2023-05-10T05:40:58;12.20;99.90
4697;DHT22;2362;50.780;0.292;2023-05-10T05:43:24;12.10;99.90
4697;DHT22;2362;50.780;0.292;2023-05-10T05:45:52;12.10;99.90
4697;DHT22;2362;50.780;0.292;2023-05-10T05:48:18;12.20;99.90
4697;DHT22;2362;50.780;0.292;2023-05-10T05:50:44;12.20;99.90
4697;DHT22;2362;50.780;0.292;2023-05-10T05:53:11;12.10;99.90
4697;DHT22;2362;50.780;0.292;2023-05-10T05:55:36;12.10;99.90
4697;DHT22;2362;50.780;0.292;2023-05-10T05:58:02;12.10;99.90
4697;DHT22;2362;50.780;0.292;2023-05-10T06:00:28;12.20;99.90
4697;DHT22;2362;50.780;0.292;2023-05-10T06:02:54;12.20;99.90
4697;DHT22;2362;50.780;0.292;2023-05-10T06:05:19;12.50;99.90
4697;DHT22;2362;50.780;0.292;2023-05-10T06:07:46;13.10;99.90
4697;DHT22;2362;50.780;0.292;2023-05-10T06:10:11;13.00;99.90
4697;DHT22;2362;50.780;0.292;2023-05-10T06:12:37;12.80;99.90
4697;DHT22;2362;50.780;0.292;2023-05-10T06:15:03;12.70;99.90
4697;DHT22;2362;50.780;0.292;2023-05-10T06:17:55;12.60;99.90
4697;DHT22;2362;50.780;0.292;2023-05-10T06:20:46;12.60;99.90
4697;DHT22;2362;50.780;0.292;2023-05-10T06:23:14;12.50;99.90
4697;DHT22;2362;50.780;0.292;2023-05-10T06:25:40;12.50;99.90
4697;DHT22;2362;50.780;0.292;2023-05-10T06:28:05;12.50;99.90
4697;DHT22;2362;50.780;0.292;2023-05-10T06:30:31;12.40;99.90
4697;DHT22;2362;50.780;0.292;2023-05-10T06:32:56;12.40;99.90
4697;DHT22;2362;50.780;0.292;2023-05-10T06:35:22;12.40;99.90
4697;DHT22;2362;50.780;0.292;2023-05-10T06:37:48;12.40;99.90
4697;DHT22;2362;50.780;0.292;2023-05-10T06:40:14;12.50;99.90
4697;DHT22;2362;50.780;0.292;2023-05-10T06:42:40;12.60;99.90
4697;DHT22;2362;50.780;0.292;2023-05-10T06:45:06;12.70;99.90
4697;DHT22;2362;50.780;0.292;2023-05-10T06:47:32;12.70;99.90
4697;DHT22;2362;50.780;0.292;2023-05-10T06:49:57;12.70;99.90
4697;DHT22;2362;50.780;0.292;2023-05-10T06:52:23;12.70;99.90
4697;DHT22;2362;50.780;0.292;2023-05-10T06:54:51;12.70;99.90
4697;DHT22;2362;50.780;0.292;2023-05-10T06:57:17;12.80;99.90
4697;DHT22;2362;50.780;0.292;2023-05-10T06:59:43;12.90;99.90
4697;DHT22;2362;50.780;0.292;2023-05-10T07:02:08;13.00;99.90
4697;DHT22;2362;50.780;0.292;2023-05-10T07:04:34;13.00;99.90
4697;DHT22;2362;50.780;0.292;2023-05-10T07:07:00;13.20;99.90
4697;DHT22;2362;50.780;0.292;2023-05-10T07:09:25;13.60;99.90
4697;DHT22;2362;50.780;0.292;2023-05-10T07:11:51;14.30;99.90
4697;DHT22;2362;50.780;0.292;2023-05-10T07:14:16;15.20;99.90
4697;DHT22;2362;50.780;0.292;2023-05-10T07:16:42;15.90;99.90
4697;DHT22;2362;50.780;0.292;2023-05-10T07:19:08;16.70;99.90
4697;DHT22;2362;50.780;0.292;2023-05-10T07:21:34;17.40;99.90
4697;DHT22;2362;50.780;0.292;2023-05-10T07:24:00;17.50;99.90
4697;DHT22;2362;50.780;0.292;2023-05-10T07:26:26;17.40;99.90
4697;DHT22;2362;50.780;0.292;2023-05-10T07:28:52;18.00;99.90
4697;DHT22;2362;50.780;0.292;2023-05-10T07:31:17;17.90;99.90
4697;DHT22;2362;50.780;0.292;2023-05-10T07:33:43;18.00;99.90
4697;DHT22;2362;50.780;0.292;2023-05-10T07:36:08;18.00;99.90
4697;DHT22;2362;50.780;0.292;2023-05-10T07:38:34;18.10;99.90
4697;DHT22;2362;50.780;0.292;2023-05-10T07:41:00;18.30;99.90
4697;DHT22;2362;50.780;0.292;2023-05-10T07:43:25;18.00;99.90
4697;DHT22;2362;50.780;0.292;2023-05-10T07:45:51;18.30;99.90
4697;DHT22;2362;50.780;0.292;2023-05-10T07:48:16;18.50;99.90
4697;DHT22;2362;50.780;0.292;2023-05-10T07:50:42;18.30;99.90
4697;DHT22;2362;50.780;0.292;2023-05-10T07:53:08;18.50;99.90
4697;DHT22;2362;50.780;0.292;2023-05-10T07:55:33;18.80;99.90
4697;DHT22;2362;50.780;0.292;2023-05-10T07:58:25;18.80;99.90
4697;DHT22;2362;50.780;0.292;2023-05-10T08:01:16;18.50;99.90
4697;DHT22;2362;50.780;0.292;2023-05-10T08:04:32;18.60;99.90
4697;DHT22;2362;50.780;0.292;2023-05-10T08:06:58;18.30;99.90
4697;DHT22;2362;50.780;0.292;2023-05-10T08:09:23;18.30;99.90
4697;DHT22;2362;50.780;0.292;2023-05-10T08:11:49;18.50;99.90
4697;DHT22;2362;50.780;0.292;2023-05-10T08:14:16;18.40;99.90
4697;DHT22;2362;50.780;0.292;2023-05-10T08:16:42;18.90;99.90
4697;DHT22;2362;50.780;0.292;2023-05-10T08:19:08;19.60;99.90
4697;DHT22;2362;50.780;0.292;2023-05-10T08:21:33;19.60;99.90
4697;DHT22;2362;50.780;0.292;2023-05-10T08:23:59;19.00;99.90
4697;DHT22;2362;50.780;0.292;2023-05-10T08:26:24;18.70;99.90
4697;DHT22;2362;50.780;0.292;2023-05-10T08:28:51;18.70;99.90
4697;DHT22;2362;50.780;0.292;2023-05-10T08:31:16;18.90;99.90
4697;DHT22;2362;50.780;0.292;2023-05-10T08:33:43;18.60;99.90
4697;DHT22;2362;50.780;0.292;2023-05-10T08:36:09;18.80;99.90
4697;DHT22;2362;50.780;0.292;2023-05-10T08:38:38;18.60;99.90
4697;DHT22;2362;50.780;0.292;2023-05-10T08:41:04;18.30;99.90
4697;DHT22;2362;50.780;0.292;2023-05-10T08:43:31;18.30;99.90
4697;DHT22;2362;50.780;0.292;2023-05-10T08:46:00;18.60;99.90
4697;DHT22;2362;50.780;0.292;2023-05-10T08:48:29;18.90;99.90
4697;DHT22;2362;50.780;0.292;2023-05-10T08:50:56;18.80;99.90
4697;DHT22;2362;50.780;0.292;2023-05-10T08:53:24;18.70;99.90
4697;DHT22;2362;50.780;0.292;2023-05-10T08:55:53;18.10;99.90
4697;DHT22;2362;50.780;0.292;2023-05-10T08:58:19;18.00;99.90
4697;DHT22;2362;50.780;0.292;2023-05-10T09:00:45;18.10;99.90
4697;DHT22;2362;50.780;0.292;2023-05-10T09:03:12;18.00;99.90
4697;DHT22;2362;50.780;0.292;2023-05-10T09:05:38;17.70;99.90
4697;DHT22;2362;50.780;0.292;2023-05-10T09:08:05;17.30;99.90
4697;DHT22;2362;50.780;0.292;2023-05-10T09:10:31;17.40;99.90
4697;DHT22;2362;50.780;0.292;2023-05-10T09:12:58;17.20;99.90
4697;DHT22;2362;50.780;0.292;2023-05-10T09:15:24;17.20;99.90
4697;DHT22;2362;50.780;0.292;2023-05-10T09:17:50;17.30;99.90
4697;DHT22;2362;50.780;0.292;2023-05-10T09:20:16;17.20;99.90
4697;DHT22;2362;50.780;0.292;2023-05-10T09:22:43;17.20;99.90
4697;DHT22;2362;50.780;0.292;2023-05-10T09:25:13;17.00;99.90
4697;DHT22;2362;50.780;0.292;2023-05-10T09:27:41;16.80;99.90
4697;DHT22;2362;50.780;0.292;2023-05-10T09:30:07;16.80;99.90
4697;DHT22;2362;50.780;0.292;2023-05-10T09:32:41;16.80;99.90
4697;DHT22;2362;50.780;0.292;2023-05-10T09:35:08;16.70;99.90
4697;DHT22;2362;50.780;0.292;2023-05-10T09:37:34;16.80;99.90
4697;DHT22;2362;50.780;0.292;2023-05-10T09:40:00;16.70;99.90
4697;DHT22;2362;50.780;0.292;2023-05-10T09:42:26;16.70;99.90
4697;DHT22;2362;50.780;0.292;2023-05-10T09:44:51;16.80;99.90
4697;DHT22;2362;50.780;0.292;2023-05-10T09:47:17;16.60;99.90
4697;DHT22;2362;50.780;0.292;2023-05-10T09:49:49;16.30;99.90
4697;DHT22;2362;50.780;0.292;2023-05-10T09:52:15;16.40;99.90
4697;DHT22;2362;50.780;0.292;2023-05-10T09:54:52;16.40;99.90
4697;DHT22;2362;50.780;0.292;2023-05-10T09:57:23;16.30;99.90
4697;DHT22;2362;50.780;0.292;2023-05-10T09:59:49;16.50;99.90
4697;DHT22;2362;50.780;0.292;2023-05-10T10:02:16;16.60;99.90
4697;DHT22;2362;50.780;0.292;2023-05-10T10:04:42;16.60;99.90
4697;DHT22;2362;50.780;0.292;2023-05-10T10:07:08;16.80;99.90
4697;DHT22;2362;50.780;0.292;2023-05-10T10:09:34;16.90;99.90
4697;DHT22;2362;50.780;0.292;2023-05-10T10:12:01;17.00;99.90
4697;DHT22;2362;50.780;0.292;2023-05-10T10:14:28;17.20;99.90
4697;DHT22;2362;50.780;0.292;2023-05-10T10:16:54;17.00;99.90
4697;DHT22;2362;50.780;0.292;2023-05-10T10:19:21;17.10;99.90
4697;DHT22;2362;50.780;0.292;2023-05-10T10:21:50;17.20;99.90
4697;DHT22;2362;50.780;0.292;2023-05-10T10:24:16;17.40;99.90
4697;DHT22;2362;50.780;0.292;2023-05-10T10:26:42;17.30;99.90
4697;DHT22;2362;50.780;0.292;2023-05-10T10:29:23;17.30;99.90
4697;DHT22;2362;50.780;0.292;2023-05-10T10:34:34;17.10;99.90
4697;DHT22;2362;50.780;0.292;2023-05-10T10:37:05;17.20;99.90
4697;DHT22;2362;50.780;0.292;2023-05-10T10:39:31;17.20;99.90
4697;DHT22;2362;50.780;0.292;2023-05-10T10:41:57;17.40;99.90
4697;DHT22;2362;50.780;0.292;2023-05-10T10:47:10;18.00;99.90
4697;DHT22;2362;50.780;0.292;2023-05-10T10:52:30;17.70;99.90
4697;DHT22;2362;50.780;0.292;2023-05-10T10:55:00;18.00;99.90
4697;DHT22;2362;50.780;0.292;2023-05-10T10:57:27;18.20;99.90
4697;DHT22;2362;50.780;0.292;2023-05-10T11:02:53;18.30;99.90
4697;DHT22;2362;50.780;0.292;2023-05-10T11:08:31;18.60;99.90
4697;DHT22;2362;50.780;0.292;2023-05-10T11:13:30;18.80;99.90
4697;DHT22;2362;50.780;0.292;2023-05-10T11:15:57;18.60;99.90
4697;DHT22;2362;50.780;0.292;2023-05-10T11:18:28;18.60;99.90
4697;DHT22;2362;50.780;0.292;2023-05-10T11:21:01;18.20;99.90
4697;DHT22;2362;50.780;0.292;2023-05-10T11:26:09;18.00;99.90
4697;DHT22;2362;50.780;0.292;2023-05-10T11:28:47;18.00;99.90
4697;DHT22;2362;50.780;0.292;2023-05-10T11:31:19;18.10;99.90
4697;DHT22;2362;50.780;0.292;2023-05-10T11:33:50;18.20;99.90
4697;DHT22;2362;50.780;0.292;2023-05-10T11:36:21;18.50;99.90
4697;DHT22;2362;50.780;0.292;2023-05-10T11:38:47;18.60;99.90
4697;DHT22;2362;50.780;0.292;2023-05-10T11:41:15;18.40;99.90
4697;DHT22;2362;50.780;0.292;2023-05-10T11:43:41;18.40;99.90
4697;DHT22;2362;50.780;0.292;2023-05-10T11:46:09;18.10;99.90
4697;DHT22;2362;50.780;0.292;2023-05-10T11:48:36;18.20;99.90
4697;DHT22;2362;50.780;0.292;2023-05-10T11:51:02;18.00;99.90
4697;DHT22;2362;50.780;0.292;2023-05-10T11:53:32;17.80;99.90
4697;DHT22;2362;50.780;0.292;2023-05-10T11:56:06;17.60;99.90
4697;DHT22;2362;50.780;0.292;2023-05-10T11:58:32;17.70;99.90
4697;DHT22;2362;50.780;0.292;2023-05-10T12:00:59;17.90;99.90
4697;DHT22;2362;50.780;0.292;2023-05-10T12:03:28;17.90;99.90
4697;DHT22;2362;50.780;0.292;2023-05-10T12:05:55;18.00;99.90
4697;DHT22;2362;50.780;0.292;2023-05-10T12:08:23;18.00;99.90
4697;DHT22;2362;50.780;0.292;2023-05-10T12:10:50;18.00;99.90
4697;DHT22;2362;50.780;0.292;2023-05-10T12:13:16;18.00;99.90
4697;DHT22;2362;50.780;0.292;2023-05-10T12:15:43;18.00;99.90
4697;DHT22;2362;50.780;0.292;2023-05-10T12:18:22;17.50;99.90
4697;DHT22;2362;50.780;0.292;2023-05-10T12:20:47;17.70;99.90
4697;DHT22;2362;50.780;0.292;2023-05-10T12:23:13;17.70;99.90
4697;DHT22;2362;50.780;0.292;2023-05-10T12:25:39;17.60;99.90
4697;DHT22;2362;50.780;0.292;2023-05-10T12:28:06;17.40;99.90
4697;DHT22;2362;50.780;0.292;2023-05-10T12:30:34;17.20;99.90
4697;DHT22;2362;50.780;0.292;2023-05-10T12:33:11;17.30;99.90
4697;DHT22;2362;50.780;0.292;2023-05-10T12:35:52;17.50;99.90
4697;DHT22;2362;50.780;0.292;2023-05-10T12:40:50;17.70;99.90
4697;DHT22;2362;50.780;0.292;2023-05-10T12:43:16;17.80;99.90
4697;DHT22;2362;50.780;0.292;2023-05-10T12:45:42;18.10;99.90
4697;DHT22;2362;50.780;0.292;2023-05-10T12:48:07;18.30;99.90
4697;DHT22;2362;50.780;0.292;2023-05-10T12:50:33;18.20;99.90
4697;DHT22;2362;50.780;0.292;2023-05-10T12:52:59;18.50;99.90
4697;DHT22;2362;50.780;0.292;2023-05-10T12:55:24;18.60;99.90
4697;DHT22;2362;50.780;0.292;2023-05-10T12:57:50;18.70;99.90
4697;DHT22;2362;50.780;0.292;2023-05-10T13:00:16;18.70;99.90
4697;DHT22;2362;50.780;0.292;2023-05-10T13:02:42;18.30;99.90
4697;DHT22;2362;50.780;0.292;2023-05-10T13:05:07;17.70;99.90
4697;DHT22;2362;50.780;0.292;2023-05-10T13:07:33;17.30;99.90
4697;DHT22;2362;50.780;0.292;2023-05-10T13:09:59;17.10;99.90
4697;DHT22;2362;50.780;0.292;2023-05-10T13:12:24;17.20;99.90
4697;DHT22;2362;50.780;0.292;2023-05-10T13:14:50;17.30;99.90
4697;DHT22;2362;50.780;0.292;2023-05-10T13:17:16;17.20;99.90
4697;DHT22;2362;50.780;0.292;2023-05-10T13:19:41;17.10;99.90
4697;DHT22;2362;50.780;0.292;2023-05-10T13:22:07;17.00;99.90
4697;DHT22;2362;50.780;0.292;2023-05-10T13:24:32;17.20;99.90
4697;DHT22;2362;50.780;0.292;2023-05-10T13:26:58;17.30;99.90
4697;DHT22;2362;50.780;0.292;2023-05-10T13:29:24;17.50;99.90
4697;DHT22;2362;50.780;0.292;2023-05-10T13:31:49;17.60;99.90
4697;DHT22;2362;50.780;0.292;2023-05-10T13:34:15;17.50;99.90
4697;DHT22;2362;50.780;0.292;2023-05-10T13:36:41;17.30;99.90
4697;DHT22;2362;50.780;0.292;2023-05-10T13:39:06;17.30;99.90
4697;DHT22;2362;50.780;0.292;2023-05-10T13:41:32;17.50;99.90
4697;DHT22;2362;50.780;0.292;2023-05-10T13:43:58;17.70;99.90
4697;DHT22;2362;50.780;0.292;2023-05-10T13:46:24;17.30;99.90
4697;DHT22;2362;50.780;0.292;2023-05-10T13:48:51;17.20;99.90
4697;DHT22;2362;50.780;0.292;2023-05-10T13:51:17;17.20;99.90
4697;DHT22;2362;50.780;0.292;2023-05-10T13:53:43;17.30;99.90
4697;DHT22;2362;50.780;0.292;2023-05-10T13:56:08;17.10;99.90
4697;DHT22;2362;50.780;0.292;2023-05-10T13:58:34;17.20;99.90
4697;DHT22;2362;50.780;0.292;2023-05-10T14:01:01;17.30;99.90
4697;DHT22;2362;50.780;0.292;2023-05-10T14:03:26;17.40;99.90
4697;DHT22;2362;50.780;0.292;2023-05-10T14:05:52;17.80;99.90
4697;DHT22;2362;50.780;0.292;2023-05-10T14:08:17;17.90;99.90
4697;DHT22;2362;50.780;0.292;2023-05-10T14:10:43;17.80;99.90
4697;DHT22;2362;50.780;0.292;2023-05-10T14:13:09;17.80;99.90
4697;DHT22;2362;50.780;0.292;2023-05-10T14:15:34;17.50;99.90
4697;DHT22;2362;50.780;0.292;2023-05-10T14:18:00;17.40;99.90
4697;DHT22;2362;50.780;0.292;2023-05-10T14:20:26;17.00;99.90
4697;DHT22;2362;50.780;0.292;2023-05-10T14:22:51;17.10;99.90
4697;DHT22;2362;50.780;0.292;2023-05-10T14:25:17;17.10;99.90
4697;DHT22;2362;50.780;0.292;2023-05-10T14:27:43;17.20;99.90
4697;DHT22;2362;50.780;0.292;2023-05-10T14:30:09;17.10;99.90
4697;DHT22;2362;50.780;0.292;2023-05-10T14:32:35;17.10;99.90
4697;DHT22;2362;50.780;0.292;2023-05-10T14:35:02;17.00;99.90
4697;DHT22;2362;50.780;0.292;2023-05-10T14:37:28;16.60;99.90
4697;DHT22;2362;50.780;0.292;2023-05-10T14:39:54;16.50;99.90
4697;DHT22;2362;50.780;0.292;2023-05-10T14:42:19;16.60;99.90
4697;DHT22;2362;50.780;0.292;2023-05-10T14:44:45;16.80;99.90
4697;DHT22;2362;50.780;0.292;2023-05-10T14:47:11;16.70;99.90
4697;DHT22;2362;50.780;0.292;2023-05-10T14:49:37;16.60;99.90
4697;DHT22;2362;50.780;0.292;2023-05-10T14:52:02;16.40;99.90
4697;DHT22;2362;50.780;0.292;2023-05-10T14:54:28;16.40;99.90
4697;DHT22;2362;50.780;0.292;2023-05-10T14:56:54;16.40;99.90
4697;DHT22;2362;50.780;0.292;2023-05-10T14:59:20;16.60;99.90
4697;DHT22;2362;50.780;0.292;2023-05-10T15:01:46;16.80;99.90
4697;DHT22;2362;50.780;0.292;2023-05-10T15:04:11;17.00;99.90
4697;DHT22;2362;50.780;0.292;2023-05-10T15:06:38;17.00;99.90
4697;DHT22;2362;50.780;0.292;2023-05-10T15:09:04;17.20;99.90
4697;DHT22;2362;50.780;0.292;2023-05-10T15:11:30;17.10;99.90
4697;DHT22;2362;50.780;0.292;2023-05-10T15:13:55;17.20;99.90
4697;DHT22;2362;50.780;0.292;2023-05-10T15:16:21;17.50;99.90
4697;DHT22;2362;50.780;0.292;2023-05-10T15:18:47;17.50;99.90
4697;DHT22;2362;50.780;0.292;2023-05-10T15:21:15;17.50;99.90
4697;DHT22;2362;50.780;0.292;2023-05-10T15:23:41;17.60;99.90
4697;DHT22;2362;50.780;0.292;2023-05-10T15:26:08;17.20;99.90
4697;DHT22;2362;50.780;0.292;2023-05-10T15:28:36;16.90;99.90
4697;DHT22;2362;50.780;0.292;2023-05-10T15:31:01;16.60;99.90
4697;DHT22;2362;50.780;0.292;2023-05-10T15:33:31;16.40;99.90
4697;DHT22;2362;50.780;0.292;2023-05-10T15:35:57;16.30;99.90
4697;DHT22;2362;50.780;0.292;2023-05-10T15:38:23;16.20;99.90
4697;DHT22;2362;50.780;0.292;2023-05-10T15:40:49;16.50;99.90
4697;DHT22;2362;50.780;0.292;2023-05-10T15:43:14;16.60;99.90
4697;DHT22;2362;50.780;0.292;2023-05-10T15:45:40;16.50;99.90
4697;DHT22;2362;50.780;0.292;2023-05-10T15:48:06;16.60;99.90
4697;DHT22;2362;50.780;0.292;2023-05-10T15:50:32;16.70;99.90
4697;DHT22;2362;50.780;0.292;2023-05-10T15:52:58;16.60;99.90
4697;DHT22;2362;50.780;0.292;2023-05-10T15:55:24;16.60;99.90
4697;DHT22;2362;50.780;0.292;2023-05-10T15:57:50;16.60;99.90
4697;DHT22;2362;50.780;0.292;2023-05-10T16:00:16;16.80;99.90
4697;DHT22;2362;50.780;0.292;2023-05-10T16:02:42;16.90;99.90
4697;DHT22;2362;50.780;0.292;2023-05-10T16:05:08;16.90;99.90
4697;DHT22;2362;50.780;0.292;2023-05-10T16:07:34;16.70;99.90
4697;DHT22;2362;50.780;0.292;2023-05-10T16:10:00;16.70;99.90
4697;DHT22;2362;50.780;0.292;2023-05-10T16:12:30;16.70;99.90
4697;DHT22;2362;50.780;0.292;2023-05-10T16:14:56;16.50;99.90
4697;DHT22;2362;50.780;0.292;2023-05-10T16:17:22;16.50;99.90
4697;DHT22;2362;50.780;0.292;2023-05-10T16:19:47;16.30;99.90
4697;DHT22;2362;50.780;0.292;2023-05-10T16:22:13;16.20;99.90
4697;DHT22;2362;50.780;0.292;2023-05-10T16:24:39;16.20;99.90
4697;DHT22;2362;50.780;0.292;2023-05-10T16:27:06;16.10;99.90
4697;DHT22;2362;50.780;0.292;2023-05-10T16:29:31;16.30;99.90
4697;DHT22;2362;50.780;0.292;2023-05-10T16:31:57;16.10;99.90
4697;DHT22;2362;50.780;0.292;2023-05-10T16:34:22;16.00;99.90
4697;DHT22;2362;50.780;0.292;2023-05-10T16:36:49;16.10;99.90
4697;DHT22;2362;50.780;0.292;2023-05-10T16:39:15;16.00;99.90
4697;DHT22;2362;50.780;0.292;2023-05-10T16:41:41;16.10;99.90
4697;DHT22;2362;50.780;0.292;2023-05-10T16:44:07;16.20;99.90